Flight Track Log - Related Links

Times and Time Zones

All times are in EDT time to prevent confusion due to time zone crossing. See the CSN3487 flight status page for this flight to view local times or setup timezone preferences in your user account.

Time Position Orientation Groundspeed Altitude Reporting Facility
EDT Latitude Longitude Course Direction KTS MPH feet Rate Location/Type
Sat 11:35:32 PM 23.4450 113.2920 354° North 165 190 2,600  Level FlightAware ADS-B
Sat 11:35:57 PM 23.4650 113.2910 357° North 195 224 3,100 1,309 Climbing FlightAware ADS-B
Sat 11:36:27 PM 23.4960 113.2900 358° North 234 269 3,800 1,700 Climbing FlightAware ADS-B
Sat 11:36:57 PM 23.5300 113.2800 345° North 271 312 4,800 1,964 Climbing FlightAware ADS-B
Sat 11:37:22 PM 23.5590 113.2720 346° North 278 320 5,600 2,040 Climbing FlightAware ADS-B
Sat 11:37:47 PM 23.5910 113.2640 347° North 281 323 6,500 1,200 Climbing FlightAware ADS-B
Sat 11:38:22 PM 23.6370 113.2490 343° North 280 322 6,800 400 Climbing FlightAware ADS-B
Sat 11:38:32 PM 23.6470 113.2390 318° Northwest 278 320 6,800 240 Level FlightAware ADS-B
Sat 11:38:47 PM 23.6560 113.2220 300° West 275 316 6,900 1,200 Climbing FlightAware ADS-B
Sat 11:39:02 PM 23.6580 113.2000 276° West 275 316 7,400 2,800 Climbing FlightAware ADS-B
Sat 11:39:32 PM 23.6490 113.1620 256° West 271 312 9,000 2,829 Climbing FlightAware ADS-B
Sat 11:40:12 PM 23.6370 113.1060 257° West 285 328 10,700 2,182 Climbing FlightAware ADS-B
Sat 11:40:27 PM 23.6280 113.0880 241° Southwest 306 352 11,000 1,200 Climbing FlightAware ADS-B
Sat 11:40:52 PM 23.5980 113.0630 217° Southwest 343 395 11,500 1,050 Climbing FlightAware ADS-B
Sat 11:41:07 PM 23.5740 113.0570 193° South 367 422 11,700 1,964 Climbing FlightAware ADS-B
Sat 11:41:47 PM 23.5040 113.0590 178° South 380 437 13,300 2,329 Climbing FlightAware ADS-B
Sat 11:42:32 PM 23.4220 113.0610 179° South 389 448 15,000 2,329 Climbing FlightAware ADS-B
Sat 11:43:12 PM 23.3480 113.0630 179° South 393 452 16,600 1,906 Climbing FlightAware ADS-B
Sat 11:43:57 PM 23.2670 113.0780 170° South 415 478 17,700 1,553 Climbing FlightAware ADS-B
Sat 11:44:37 PM 23.1970 113.1100 157° South 424 488 18,800 1,412 Climbing FlightAware ADS-B
Sat 11:45:22 PM 23.1120 113.1490 157° South 428 493 19,700 635 Climbing FlightAware ADS-B
Sat 11:46:02 PM 23.0440 113.1690 165° South 417 480 19,700  Level FlightAware ADS-B
Sat 11:46:27 PM 22.9930 113.1560 193° South 401 461 19,700  Level FlightAware ADS-B
Sat 11:47:12 PM 22.9290 113.1020 218° Southwest 394 453 19,700 706 Level FlightAware ADS-B
Sat 11:47:52 PM 22.8750 113.0510 221° Southwest 392 451 20,700 2,471 Climbing FlightAware ADS-B
Sat 11:48:37 PM 22.8140 112.9940 221° Southwest 360 414 23,200 2,682 Climbing FlightAware ADS-B
Sat 11:49:17 PM 22.7630 112.9460 221° Southwest 357 411 24,500 1,482 Climbing FlightAware ADS-B
Sat 11:50:02 PM 22.7060 112.8930 221° Southwest 372 428 25,300 988 Climbing FlightAware ADS-B
Sat 11:50:42 PM 22.6520 112.8420 221° Southwest 393 452 25,900 900 Climbing FlightAware ADS-B
Sat 11:51:22 PM 22.5970 112.7910 221° Southwest 406 467 26,500 1,412 Climbing FlightAware ADS-B
Sat 11:52:07 PM 22.5310 112.7290 221° Southwest 403 464 27,900 1,263 Climbing FlightAware ADS-B
Sat 11:52:57 PM 22.4660 112.6670 221° Southwest 405 466 28,500 400 Climbing FlightAware ADS-B
Sat 11:53:37 PM 22.4180 112.6220 221° Southwest 405 466 28,500  Level FlightAware ADS-B
Sat 11:54:27 PM 22.3580 112.5660 221° Southwest 405 466 28,500  Level FlightAware ADS-B
Sat 11:55:07 PM 22.3100 112.5200 222° Southwest 405 466 28,500  Level FlightAware ADS-B
Sat 11:55:47 PM 22.2620 112.4750 221° Southwest 405 466 28,500  Level FlightAware ADS-B
Sat 11:56:27 PM 22.2140 112.4300 221° Southwest 405 466 28,500  Level FlightAware ADS-B
Sat 11:59:00 PM 22.2908 112.2043 290° West  Level Estimated
Sun 12:00:00 AM 22.3208 112.1158 290° West  Level Estimated
Sun 12:01:00 AM 22.3508 112.0271 290° West  Level Estimated
Sun 12:02:00 AM 22.3807 111.9385 290° West  Level Estimated
Sun 12:03:00 AM 22.4106 111.8498 290° West  Level Estimated
Sun 12:04:00 AM 22.4405 111.7611 290° West  Level Estimated
Sun 12:05:00 AM 22.4702 111.6723 290° West  Level Estimated
Sun 12:06:00 AM 22.5000 111.5835 290° West  Level Estimated
Sun 12:07:00 AM 22.5297 111.4947 290° West  Level Estimated
Sun 12:08:00 AM 22.5593 111.4058 290° West  Level Estimated
Sun 12:09:00 AM 22.5889 111.3169 290° West  Level Estimated
Sun 12:10:00 AM 22.6184 111.2280 290° West  Level Estimated
Sun 12:11:00 AM 22.6479 111.1390 290° West  Level Estimated
Sun 12:12:00 AM 22.6774 111.0499 290° West  Level Estimated
Sun 12:13:00 AM 22.7068 110.9609 290° West  Level Estimated
Sun 12:14:00 AM 22.7361 110.8718 290° West  Level Estimated
Sun 12:15:00 AM 22.7654 110.7826 290° West  Level Estimated
Sun 12:16:00 AM 22.7947 110.6934 290° West  Level Estimated
Sun 12:17:00 AM 22.8239 110.6042 290° West  Level Estimated
Sun 12:18:00 AM 22.8530 110.5150 290° West  Level Estimated
Sun 12:19:00 AM 22.8821 110.4257 289° West  Level Estimated
Sun 12:20:00 AM 22.9112 110.3363 289° West  Level Estimated
Sun 12:21:00 AM 22.9402 110.2470 289° West  Level Estimated
Sun 12:22:00 AM 22.9691 110.1575 289° West  Level Estimated
Sun 12:23:00 AM 22.9980 110.0681 289° West  Level Estimated
Sun 12:24:00 AM 23.0269 109.9786 289° West  Level Estimated
Sun 12:25:00 AM 23.0557 109.8891 289° West  Level Estimated
Sun 12:26:00 AM 23.0844 109.7995 289° West  Level Estimated
Sun 12:27:00 AM 23.1131 109.7099 289° West  Level Estimated
Sun 12:28:00 AM 23.1418 109.6203 289° West  Level Estimated
Sun 12:29:00 AM 23.1704 109.5306 289° West  Level Estimated
Sun 12:30:00 AM 23.1989 109.4409 289° West  Level Estimated
Sun 12:31:00 AM 23.2274 109.3511 289° West  Level Estimated
Sun 12:32:00 AM 23.2558 109.2613 289° West  Level Estimated
Sun 12:33:00 AM 23.2842 109.1715 289° West  Level Estimated
Sun 12:34:00 AM 23.3126 109.0816 289° West  Level Estimated
Sun 12:35:00 AM 23.3409 108.9917 289° West  Level Estimated
Sun 12:36:00 AM 23.3691 108.9018 289° West  Level Estimated
Sun 12:37:00 AM 23.3973 108.8118 289° West  Level Estimated
Sun 12:38:00 AM 23.4254 108.7218 289° West  Level Estimated
Sun 12:39:00 AM 23.4535 108.6317 289° West  Level Estimated
Sun 12:40:00 AM 23.4816 108.5416 289° West  Level Estimated
Sun 12:41:00 AM 23.5095 108.4515 289° West  Level Estimated
Sun 12:42:00 AM 23.5375 108.3613 289° West  Level Estimated
Sun 12:43:00 AM 23.5653 108.2711 289° West  Level Estimated
Sun 12:44:00 AM 23.5932 108.1808 289° West  Level Estimated
Sun 12:45:00 AM 23.6209 108.0905 289° West  Level Estimated
Sun 12:46:00 AM 23.6486 108.0002 289° West  Level Estimated
Sun 12:47:00 AM 23.6763 107.9098 289° West  Level Estimated
Sun 12:48:00 AM 23.7039 107.8194 288° West  Level Estimated
Sun 12:49:00 AM 23.7315 107.7290 288° West  Level Estimated
Sun 12:50:00 AM 23.7590 107.6385 288° West  Level Estimated
Sun 12:51:00 AM 23.7865 107.5480 288° West  Level Estimated
Sun 12:52:00 AM 23.8139 107.4574 288° West  Level Estimated
Sun 12:53:00 AM 23.8412 107.3668 288° West  Level Estimated
Sun 12:54:00 AM 23.8685 107.2762 288° West  Level Estimated
Sun 12:55:00 AM 23.8958 107.1855 288° West  Level Estimated
Sun 12:56:00 AM 23.9230 107.0948 288° West  Level Estimated
Sun 12:57:00 AM 23.9501 107.0041 288° West  Level Estimated
Sun 12:58:00 AM 23.9772 106.9133 288° West  Level Estimated
Sun 12:59:00 AM 24.0042 106.8224 288° West  Level Estimated
Sun 01:00:00 AM 24.0312 106.7316 288° West  Level Estimated
Sun 01:01:00 AM 24.0581 106.6407 288° West  Level Estimated
Sun 01:02:00 AM 24.0850 106.5497 288° West  Level Estimated
Sun 01:03:00 AM 24.1118 106.4587 288° West  Level Estimated
Sun 01:04:00 AM 24.1386 106.3677 288° West  Level Estimated
Sun 01:05:00 AM 24.1653 106.2767 288° West  Level Estimated
Sun 01:06:00 AM 24.1919 106.1856 288° West  Level Estimated
Sun 01:07:00 AM 24.2185 106.0945 288° West  Level Estimated
Sun 01:08:00 AM 24.2451 106.0033 288° West  Level Estimated
Sun 01:09:00 AM 24.2716 105.9121 288° West  Level Estimated
Sun 01:10:00 AM 24.2980 105.8208 288° West  Level Estimated
Sun 01:11:00 AM 24.3244 105.7296 288° West  Level Estimated
Sun 01:12:00 AM 24.3507 105.6382 288° West  Level Estimated
Sun 01:13:00 AM 24.3770 105.5469 288° West  Level Estimated
Sun 01:14:00 AM 24.4032 105.4555 288° West  Level Estimated
Sun 01:15:00 AM 24.4294 105.3641 287° West  Level Estimated
Sun 01:16:00 AM 24.4555 105.2726 287° West  Level Estimated
Sun 01:17:00 AM 24.4815 105.1811 287° West  Level Estimated
Sun 01:18:00 AM 24.5075 105.0895 287° West  Level Estimated
Sun 01:19:00 AM 24.5335 104.9979 287° West  Level Estimated
Sun 01:20:00 AM 24.5594 104.9063 287° West  Level Estimated
Sun 01:21:00 AM 24.5852 104.8147 287° West  Level Estimated
Sun 01:22:00 AM 24.6110 104.7230 287° West  Level Estimated
Sun 01:23:00 AM 24.6367 104.6312 287° West  Level Estimated
Sun 01:24:00 AM 24.6624 104.5394 287° West  Level Estimated
Sun 01:25:00 AM 24.6880 104.4476 287° West  Level Estimated
Sun 01:26:00 AM 24.7135 104.3558 287° West  Level Estimated
Sun 01:27:00 AM 24.7390 104.2639 287° West  Level Estimated
Sun 01:28:00 AM 24.7645 104.1720 287° West  Level Estimated
Sun 01:29:00 AM 24.7899 104.0800 287° West  Level Estimated
Sun 01:30:00 AM 24.8152 103.9880 287° West  Level Estimated
Sun 01:31:00 AM 24.8405 103.8960 287° West  Level Estimated
Sun 01:32:00 AM 24.8657 103.8039 287° West  Level Estimated
Sun 01:33:00 AM 24.8909 103.7118 287° West  Level Estimated
Sun 01:34:00 AM 24.9160 103.6196 287° West  Level Estimated
Sun 01:35:00 AM 24.9410 103.5274 287° West  Level Estimated
Sun 01:36:00 AM 24.9660 103.4352 287° West  Level Estimated
Sun 01:37:00 AM 24.9909 103.3429 287° West  Level Estimated
Sun 01:38:00 AM 25.0158 103.2506 287° West  Level Estimated
Sun 01:39:00 AM 25.0406 103.1583 287° West  Level Estimated
Sun 01:40:00 AM 25.0654 103.0659 287° West  Level Estimated

Login

Don't have an account? Register now (free) for customized features, flight alerts, and more!